Dundee, MI

8:58 PM EST on December 03, 2016 (GMT -0500)
KMIDUNDE3 | | Change Station

Elev 663 ft 41.96 °N, 83.62 °W | Updated 6 minutes ago

Overcast
Overcast
36.2 °F
Feels Like 36 °F
N
1.0
Wind Variable Wind from WNW
Gusts 1.0 mph

Today
High -- | Low -- °F
--% Chance of Precip.
Yesterday
High -- | Low -- °F
Precip. -- in
Pressure 30.29 in
Visibility 10.0 miles
Clouds Overcast 3200 ft
Windchill 36 °F
Dew Point 30 °F
Humidity 77%
Rainfall 0.00 in
Snow Depth Not available.
7:45 AM 5:03 PM
Waxing Crescent, 18% visible
METAR KTTF 040154Z AUTO 00000KT 10SM OVC032 02/M01 A3029 RMK AO2 T00231010
Pressure 30.29 in
Visibility 10.0 miles
Clouds Overcast 3200 ft
Windchill 36 °F
Dew Point 30 °F
Humidity 77%
Rainfall 0.00 in
Snow Depth Not available.
7:45 AM 5:03 PM
Waxing Crescent, 18% visible
METAR KTTF 040154Z AUTO 00000KT 10SM OVC032 02/M01 A3029 RMK AO2 T00231010

10-Day Weather Forecast

Almanac

Astronomy

Dec. 03, 2016 Rise Set
Actual Time
Civil Twilight
Nautical Twilight
Astronomical Twilight
Moon
Length of Visible Light
Length of Day
Tomorrow will be .
, % of the Moon is Illuminated

Today's Extremes

State Highs State Lows

Community

WunderPhotos

Upload Photos

1,955,560 photos uploaded!

WunderBlog® & News

Nearby

Air Quality

  Air Quality AQ Index Pollutant
Not available.

Snow Depth

Station Depth Elevation

Earthquake Activity

City Distance Mag. Time & Date
Minimum magnitude displayed is 2.5.

Coastal Water Temperatures

Place Temperature

Stations

Nearby Weather Stations

Station Location Temp. Windchill Dew Point Humidity Wind Precip. Elev Updated Type
                   

Watches & Warnings

There are currently no watches in effect.